ADDS METAR Data INFO
IDs: Format: Raw Decoded Include TAF

Data at: 2301 UTC 15 Jul 2018

KPTB 152255Z AUTO 15003KT 10SM CLR 29/22 A2999 RMK AO2 T02890215
KPTB 152235Z AUTO 15003KT 10SM CLR 30/21 A2999 RMK AO2 LTG DSNT NW T03020212
KPTB 152215Z AUTO 16003KT 10SM CLR 30/21 A2999 RMK AO2 T03000212
KPTB 152155Z AUTO 17003KT 10SM SCT050 31/21 A2999 RMK AO2 T03070207
KPTB 152135Z AUTO 13004KT 10SM SCT055 32/21 A2999 RMK AO2 T03170205
KPTB 152115Z AUTO 23003KT 10SM CLR 32/19 A3000 RMK AO2 T03240194
KPTB 152055Z AUTO 20003KT 10SM SCT050 33/20 A3000 RMK AO2 T03250196
KPTB 152035Z AUTO 00000KT 10SM SCT050 33/20 A3000 RMK AO2 T03270196
KPTB 152015Z AUTO 22006KT 10SM CLR 33/20 A3001 RMK AO2 T03280196
KPTB 151955Z AUTO 00000KT 7SM CLR 33/20 A3002 RMK AO2 T03260197
KPTB 151935Z AUTO 21006KT 10SM CLR 32/19 A3003 RMK AO2 T03210192
KPTB 151915Z AUTO 22007KT 10SM CLR 33/20 A3003 RMK AO2 T03260199
KPTB 151855Z AUTO 20004KT 10SM CLR 32/19 A3003 RMK AO2 T03210189
KPTB 151835Z AUTO 22006KT 7SM SCT048 32/20 A3004 RMK AO2 T03190200
KPTB 151815Z AUTO 22004KT 10SM SCT048 32/19 A3004 RMK AO2 T03170194
KPTB 151755Z AUTO 22005KT 10SM SCT043 32/19 A3004 RMK AO2 T03170193 10319 20200
KPTB 151735Z AUTO 20004KT 10SM SCT043 31/20 A3005 RMK AO2 T03110204
KPTB 151715Z AUTO 18004KT 10SM CLR 31/20 A3006 RMK AO2 T03110202
KPTB 151655Z AUTO 00000KT 10SM CLR 30/20 A3006 RMK AO2 T03020197
KPTB 151635Z AUTO 00000KT 10SM CLR 30/20 A3006 RMK AO2 T02980197
KPTB 151615Z AUTO 24003KT 10SM CLR 30/20 A3006 RMK AO2 T02960201
KPTB 151555Z AUTO 21005KT 10SM CLR 29/21 A3006 RMK AO2 T02920205
KPTB 151535Z AUTO 22004KT 10SM CLR 29/20 A3006 RMK AO2 T02860200
KPTB 151515Z AUTO 21004KT 10SM CLR 28/20 A3006 RMK AO2 T02820201
KPTB 151455Z AUTO 21004KT 10SM CLR 28/20 A3006 RMK AO2 T02770204
KPTB 151435Z AUTO 23007KT 10SM CLR 27/20 A3007 RMK AO2 T02720200
KPTB 151415Z AUTO 23005KT 10SM CLR 27/20 A3007 RMK AO2 T02660201
KPTB 151355Z AUTO 22006KT 10SM CLR 26/20 A3008 RMK AO2 T02600198
KPTB 151335Z AUTO 21006KT 10SM CLR 25/19 A3008 RMK AO2 T02510193
KPTB 151315Z AUTO 22006KT 10SM CLR 24/19 A3008 RMK AO2 T02430190
KPTB 151255Z AUTO 22004KT 10SM CLR 24/19 A3008 RMK AO2 T02350190
KPTB 151235Z AUTO 00000KT 10SM CLR 22/19 A3009 RMK AO2 T02210186
KPTB 151215Z AUTO 00000KT 10SM CLR 21/18 A3009 RMK AO2 T02080180
KPTB 151155Z AUTO 00000KT 10SM CLR 20/18 A3010 RMK AO2 T02000176 10200 20159
KPTB 151135Z AUTO 00000KT 10SM CLR 19/17 A3010 RMK AO2 T01890171
KPTB 151115Z AUTO 00000KT 10SM CLR 18/17 A3010 RMK AO2 T01820168
KPTB 151055Z AUTO 00000KT 10SM CLR 18/17 A3010 RMK AO2 T01770165
KPTB 151035Z AUTO 00000KT 10SM CLR 17/16 A3009 RMK AO2 T01730161
KPTB 151015Z AUTO 00000KT 10SM CLR 17/16 A3009 RMK AO2 T01720161
KPTB 150955Z AUTO 00000KT 10SM CLR 17/16 A3009 RMK AO2 T01720161
KPTB 150935Z AUTO 00000KT 10SM CLR 17/16 A3010 RMK AO2 T01720161
KPTB 150915Z AUTO 00000KT 10SM CLR 17/16 A3009 RMK AO2 T01720161
KPTB 150855Z AUTO 00000KT 10SM CLR 17/16 A3009 RMK AO2 T01720161
KPTB 150835Z AUTO 00000KT 10SM CLR 17/16 A3009 RMK AO2 T01700159
KPTB 150815Z AUTO 00000KT 10SM CLR 18/16 A3009 RMK AO2 T01750161
KPTB 150755Z AUTO 00000KT 10SM CLR 18/16 A3009 RMK AO2 T01750162
KPTB 150735Z AUTO 00000KT 10SM CLR 17/15 A3009 RMK AO2 T01650149
KPTB 150715Z AUTO 00000KT 10SM CLR 16/15 A3010 RMK AO2 T01620152
KPTB 150655Z AUTO 00000KT 10SM CLR 17/16 A3011 RMK AO2 T01650155
KPTB 150635Z AUTO 00000KT 10SM CLR 17/15 A3011 RMK AO2 T01670152
KPTB 150615Z AUTO 00000KT 10SM CLR 17/16 A3012 RMK AO2 T01730157
KPTB 150555Z AUTO 00000KT 10SM CLR 18/16 A3013 RMK AO2 T01760162 10237 20166
KPTB 150535Z AUTO 00000KT 10SM CLR 17/15 A3013 RMK AO2 T01660153
KPTB 150515Z AUTO 00000KT 10SM CLR 17/16 A3013 RMK AO2 T01710161
KPTB 150455Z AUTO 00000KT 10SM CLR 17/16 A3013 RMK AO2 T01700160 402980122
KPTB 150435Z AUTO 00000KT 10SM CLR 17/16 A3014 RMK AO2 T01740161
KPTB 150415Z AUTO 00000KT 10SM CLR 18/16 A3013 RMK AO2 T01820163
KPTB 150355Z AUTO 00000KT 10SM CLR 18/16 A3013 RMK AO2 T01840161
KPTB 150335Z AUTO 00000KT 10SM CLR 18/16 A3013 RMK AO2 T01840160
KPTB 150315Z AUTO 00000KT 10SM CLR 18/17 A3011 RMK AO2 T01750165
KPTB 150255Z AUTO 00000KT 10SM CLR 18/17 A3011 RMK AO2 T01770166
KPTB 150235Z AUTO 00000KT 10SM CLR 19/17 A3011 RMK AO2 T01850170
KPTB 150215Z AUTO 00000KT 10SM CLR 19/17 A3011 RMK AO2 T01850170
KPTB 150155Z AUTO 00000KT 10SM CLR 19/17 A3011 RMK AO2 T01860171
KPTB 150135Z AUTO 00000KT 10SM CLR 19/18 A3010 RMK AO2 T01900175
KPTB 150115Z AUTO 00000KT 10SM CLR 19/18 A3010 RMK AO2 T01930177
KPTB 150055Z AUTO 00000KT 10SM CLR 20/18 A3010 RMK AO2 T01970179
KPTB 150035Z AUTO 14003KT 10SM CLR 21/18 A3010 RMK AO2 T02100178
KPTB 150015Z AUTO 00000KT 10SM CLR 23/18 A3009 RMK AO2 T02250181
KPTB 142355Z AUTO 15003KT 10SM CLR 24/19 A3010 RMK AO2 T02360186 10298 20236
KPTB 142335Z AUTO 00000KT 10SM CLR 26/18 A3010 RMK AO2 T02610178
KPTB 142315Z AUTO 14003KT 10SM CLR 28/16 A3010 RMK AO2 T02750156
KPTB 142255Z AUTO 12004KT 10SM CLR 28/15 A3010 RMK AO2 T02820151
KPTB 142235Z AUTO 10005KT 10SM CLR 29/14 A3011 RMK AO2 T02900136
KPTB 142215Z AUTO 13003KT 10SM CLR 29/14 A3011 RMK AO2 T02930137
KPTB 142155Z AUTO 12004KT 10SM CLR 29/14 A3012 RMK AO2 T02940135
KPTB 142135Z AUTO 00000KT 10SM CLR 30/13 A3012 RMK AO2 T02970130
KPTB 142115Z AUTO 09003KT 10SM CLR 30/14 A3012 RMK AO2 T02960137
KPTB 142055Z AUTO 12003KT 10SM CLR 30/13 A3013 RMK AO2 T02960130
KPTB 142035Z AUTO 13003KT 10SM CLR 30/13 A3014 RMK AO2 T02950133
KPTB 142015Z AUTO 10003KT 10SM CLR 30/11 A3014 RMK AO2 T02960113
KPTB 141955Z AUTO 00000KT 10SM CLR 30/10 A3015 RMK AO2 T02960096
KPTB 141935Z AUTO 00000KT 10SM CLR 30/12 A3016 RMK AO2 T02970115
KPTB 141915Z AUTO 15004KT 10SM CLR 29/12 A3016 RMK AO2 T02930122
KPTB 141855Z AUTO 00000KT 10SM CLR 29/12 A3016 RMK AO2 T02900120
KPTB 141835Z AUTO 10005KT 10SM CLR 29/12 A3016 RMK AO2 T02930124
KPTB 141815Z AUTO 13003KT 10SM CLR 29/12 A3017 RMK AO2 T02900115
KPTB 141755Z AUTO 11003KT 10SM CLR 29/11 A3018 RMK AO2 T02880113 10289 20186
KPTB 141735Z AUTO 20003KT 10SM CLR 28/11 A3018 RMK AO2 T02820109
KPTB 141715Z AUTO 00000KT 10SM CLR 28/13 A3018 RMK AO2 T02800128
KPTB 141655Z AUTO 24004KT 10SM CLR 28/15 A3019 RMK AO2 T02820151
KPTB 141635Z AUTO 00000KT 10SM CLR 27/14 A3019 RMK AO2 T02740137
KPTB 141615Z AUTO 00000KT 10SM CLR 27/14 A3020 RMK AO2 T02690140
KPTB 141555Z AUTO 10003KT 10SM CLR 27/14 A3020 RMK AO2 T02660137
KPTB 141535Z AUTO 00000KT 10SM CLR 27/13 A3021 RMK AO2 T02660125
KPTB 141515Z AUTO 00000KT 10SM CLR 26/14 A3020 RMK AO2 T02620144
KPTB 141455Z AUTO 00000KT 10SM CLR 26/15 A3021 RMK AO2 T02560152
KPTB 141435Z AUTO 00000KT 10SM CLR 25/14 A3021 RMK AO2 T02530143
KPTB 141415Z AUTO 00000KT 10SM CLR 25/15 A3020 RMK AO2 T02490146
KPTB 141355Z AUTO 00000KT 10SM CLR 24/15 A3020 RMK AO2 T02420151
KPTB 141335Z AUTO 00000KT 10SM CLR 24/17 A3020 RMK AO2 T02350166
KPTB 141315Z AUTO 00000KT 10SM CLR 23/17 A3020 RMK AO2 T02280173
KPTB 141255Z AUTO 00000KT 10SM CLR 22/18 A3020 RMK AO2 T02180176
KPTB 141235Z AUTO 00000KT 10SM CLR 21/17 A3020 RMK AO2 T02090171
KPTB 141215Z AUTO 00000KT 10SM CLR 20/17 A3020 RMK AO2 T01970166
KPTB 141155Z AUTO 00000KT 10SM CLR 18/16 A3021 RMK AO2 T01840163 10184 20122
KPTB 141135Z AUTO 00000KT 10SM CLR 17/16 A3021 RMK AO2 T01680156
KPTB 141115Z AUTO 00000KT 10SM CLR 15/14 A3020 RMK AO2 T01500138